sensor_id;sensor_type;location;lat;lon;timestamp;P1;durP1;ratioP1;P2;durP2;ratioP2
22359;SDS011;11347;52.030;4.690;2023-02-04T00:01:27;13.30;;;5.10;;
22359;SDS011;11347;52.030;4.690;2023-02-04T00:03:52;12.77;;;4.93;;
22359;SDS011;11347;52.030;4.690;2023-02-04T00:06:18;10.53;;;4.70;;
22359;SDS011;11347;52.030;4.690;2023-02-04T00:08:43;15.57;;;5.30;;
22359;SDS011;11347;52.030;4.690;2023-02-04T00:11:09;12.53;;;5.00;;
22359;SDS011;11347;52.030;4.690;2023-02-04T00:13:34;10.87;;;4.97;;
22359;SDS011;11347;52.030;4.690;2023-02-04T00:16:00;11.73;;;4.90;;
22359;SDS011;11347;52.030;4.690;2023-02-04T00:18:25;13.03;;;4.77;;
22359;SDS011;11347;52.030;4.690;2023-02-04T00:20:52;12.40;;;5.07;;
22359;SDS011;11347;52.030;4.690;2023-02-04T00:23:17;13.00;;;5.17;;
22359;SDS011;11347;52.030;4.690;2023-02-04T00:25:43;15.17;;;5.63;;
22359;SDS011;11347;52.030;4.690;2023-02-04T00:28:08;14.93;;;4.97;;
22359;SDS011;11347;52.030;4.690;2023-02-04T00:30:35;13.33;;;5.23;;
22359;SDS011;11347;52.030;4.690;2023-02-04T00:33:00;17.10;;;5.10;;
22359;SDS011;11347;52.030;4.690;2023-02-04T00:35:26;12.17;;;4.97;;
22359;SDS011;11347;52.030;4.690;2023-02-04T00:37:52;11.57;;;5.03;;
22359;SDS011;11347;52.030;4.690;2023-02-04T00:40:18;13.10;;;5.20;;
22359;SDS011;11347;52.030;4.690;2023-02-04T00:42:43;13.80;;;4.90;;
22359;SDS011;11347;52.030;4.690;2023-02-04T00:45:09;10.27;;;5.10;;
22359;SDS011;11347;52.030;4.690;2023-02-04T00:47:36;12.30;;;4.73;;
22359;SDS011;11347;52.030;4.690;2023-02-04T00:50:02;12.93;;;5.23;;
22359;SDS011;11347;52.030;4.690;2023-02-04T00:52:28;11.67;;;4.60;;
22359;SDS011;11347;52.030;4.690;2023-02-04T00:54:53;12.70;;;5.20;;
22359;SDS011;11347;52.030;4.690;2023-02-04T00:57:19;9.50;;;4.53;;
22359;SDS011;11347;52.030;4.690;2023-02-04T00:59:45;13.20;;;5.00;;
22359;SDS011;11347;52.030;4.690;2023-02-04T01:02:11;15.23;;;5.37;;
22359;SDS011;11347;52.030;4.690;2023-02-04T01:04:36;11.33;;;4.63;;
22359;SDS011;11347;52.030;4.690;2023-02-04T01:07:03;12.40;;;4.80;;
22359;SDS011;11347;52.030;4.690;2023-02-04T01:09:28;11.20;;;4.40;;
22359;SDS011;11347;52.030;4.690;2023-02-04T01:11:54;11.63;;;4.70;;
22359;SDS011;11347;52.030;4.690;2023-02-04T01:14:19;11.73;;;4.47;;
22359;SDS011;11347;52.030;4.690;2023-02-04T01:16:45;10.80;;;4.75;;
22359;SDS011;11347;52.030;4.690;2023-02-04T01:19:10;14.67;;;4.47;;
22359;SDS011;11347;52.030;4.690;2023-02-04T01:21:36;13.03;;;4.67;;
22359;SDS011;11347;52.030;4.690;2023-02-04T01:24:02;15.53;;;5.23;;
22359;SDS011;11347;52.030;4.690;2023-02-04T01:26:28;12.17;;;4.80;;
22359;SDS011;11347;52.030;4.690;2023-02-04T01:28:54;14.43;;;4.87;;
22359;SDS011;11347;52.030;4.690;2023-02-04T01:31:19;11.70;;;5.13;;
22359;SDS011;11347;52.030;4.690;2023-02-04T01:33:45;12.63;;;4.90;;
22359;SDS011;11347;52.030;4.690;2023-02-04T01:36:10;11.43;;;4.43;;
22359;SDS011;11347;52.030;4.690;2023-02-04T01:38:36;11.87;;;4.50;;
22359;SDS011;11347;52.030;4.690;2023-02-04T01:41:02;11.17;;;4.80;;
22359;SDS011;11347;52.030;4.690;2023-02-04T01:43:29;10.20;;;4.40;;
22359;SDS011;11347;52.030;4.690;2023-02-04T01:45:55;13.47;;;4.47;;
22359;SDS011;11347;52.030;4.690;2023-02-04T01:48:21;10.77;;;4.93;;
22359;SDS011;11347;52.030;4.690;2023-02-04T01:50:48;13.07;;;4.67;;
22359;SDS011;11347;52.030;4.690;2023-02-04T01:53:17;14.03;;;5.27;;
22359;SDS011;11347;52.030;4.690;2023-02-04T01:55:49;11.17;;;4.83;;
22359;SDS011;11347;52.030;4.690;2023-02-04T01:58:15;13.80;;;4.90;;
22359;SDS011;11347;52.030;4.690;2023-02-04T02:00:41;13.13;;;4.73;;
22359;SDS011;11347;52.030;4.690;2023-02-04T02:03:07;12.77;;;5.07;;
22359;SDS011;11347;52.030;4.690;2023-02-04T02:05:38;13.43;;;4.73;;
22359;SDS011;11347;52.030;4.690;2023-02-04T02:08:04;11.43;;;4.30;;
22359;SDS011;11347;52.030;4.690;2023-02-04T02:10:31;10.20;;;4.30;;
22359;SDS011;11347;52.030;4.690;2023-02-04T02:12:57;10.57;;;4.17;;
22359;SDS011;11347;52.030;4.690;2023-02-04T02:15:23;10.33;;;4.53;;
22359;SDS011;11347;52.030;4.690;2023-02-04T02:17:50;10.13;;;4.43;;
22359;SDS011;11347;52.030;4.690;2023-02-04T02:20:17;10.13;;;4.30;;
22359;SDS011;11347;52.030;4.690;2023-02-04T02:25:40;11.47;;;4.73;;
22359;SDS011;11347;52.030;4.690;2023-02-04T02:28:07;12.37;;;4.40;;
22359;SDS011;11347;52.030;4.690;2023-02-04T02:30:37;9.57;;;3.97;;
22359;SDS011;11347;52.030;4.690;2023-02-04T02:33:03;14.27;;;4.30;;
22359;SDS011;11347;52.030;4.690;2023-02-04T02:35:30;12.17;;;4.60;;
22359;SDS011;11347;52.030;4.690;2023-02-04T02:37:56;11.07;;;4.10;;
22359;SDS011;11347;52.030;4.690;2023-02-04T02:40:22;10.90;;;4.53;;
22359;SDS011;11347;52.030;4.690;2023-02-04T02:42:48;9.03;;;4.00;;
22359;SDS011;11347;52.030;4.690;2023-02-04T02:45:21;11.77;;;4.13;;
22359;SDS011;11347;52.030;4.690;2023-02-04T02:47:51;8.60;;;3.50;;
22359;SDS011;11347;52.030;4.690;2023-02-04T02:50:19;10.20;;;4.20;;
22359;SDS011;11347;52.030;4.690;2023-02-04T02:52:47;11.57;;;4.20;;
22359;SDS011;11347;52.030;4.690;2023-02-04T02:55:14;11.30;;;4.00;;
22359;SDS011;11347;52.030;4.690;2023-02-04T02:57:42;14.47;;;4.23;;
22359;SDS011;11347;52.030;4.690;2023-02-04T03:00:14;10.83;;;3.97;;
22359;SDS011;11347;52.030;4.690;2023-02-04T03:02:41;9.53;;;4.00;;
22359;SDS011;11347;52.030;4.690;2023-02-04T03:05:08;11.57;;;3.87;;
22359;SDS011;11347;52.030;4.690;2023-02-04T03:07:34;9.23;;;3.70;;
22359;SDS011;11347;52.030;4.690;2023-02-04T03:10:00;10.43;;;3.77;;
22359;SDS011;11347;52.030;4.690;2023-02-04T03:12:27;14.13;;;3.93;;
22359;SDS011;11347;52.030;4.690;2023-02-04T03:14:53;10.00;;;3.53;;
22359;SDS011;11347;52.030;4.690;2023-02-04T03:17:18;10.57;;;3.40;;
22359;SDS011;11347;52.030;4.690;2023-02-04T03:19:44;10.73;;;3.60;;
22359;SDS011;11347;52.030;4.690;2023-02-04T03:22:09;8.20;;;3.60;;
22359;SDS011;11347;52.030;4.690;2023-02-04T03:24:35;11.03;;;3.80;;
22359;SDS011;11347;52.030;4.690;2023-02-04T03:27:01;11.10;;;3.40;;
22359;SDS011;11347;52.030;4.690;2023-02-04T03:29:27;7.37;;;3.03;;
22359;SDS011;11347;52.030;4.690;2023-02-04T03:31:53;12.53;;;3.77;;
22359;SDS011;11347;52.030;4.690;2023-02-04T03:34:20;8.43;;;3.43;;
22359;SDS011;11347;52.030;4.690;2023-02-04T03:36:46;11.43;;;3.60;;
22359;SDS011;11347;52.030;4.690;2023-02-04T03:39:11;8.97;;;3.20;;
22359;SDS011;11347;52.030;4.690;2023-02-04T03:41:37;9.50;;;2.97;;
22359;SDS011;11347;52.030;4.690;2023-02-04T03:44:03;8.43;;;3.27;;
22359;SDS011;11347;52.030;4.690;2023-02-04T03:46:28;11.37;;;3.73;;
22359;SDS011;11347;52.030;4.690;2023-02-04T03:48:54;8.97;;;3.20;;
22359;SDS011;11347;52.030;4.690;2023-02-04T03:51:19;8.47;;;2.93;;
22359;SDS011;11347;52.030;4.690;2023-02-04T03:53:45;10.90;;;3.20;;
22359;SDS011;11347;52.030;4.690;2023-02-04T03:56:11;8.73;;;3.17;;
22359;SDS011;11347;52.030;4.690;2023-02-04T03:58:36;15.57;;;3.30;;
22359;SDS011;11347;52.030;4.690;2023-02-04T04:01:02;8.77;;;3.10;;
22359;SDS011;11347;52.030;4.690;2023-02-04T04:03:27;8.87;;;3.13;;
22359;SDS011;11347;52.030;4.690;2023-02-04T04:05:53;8.00;;;3.40;;
22359;SDS011;11347;52.030;4.690;2023-02-04T04:08:19;9.20;;;3.10;;
22359;SDS011;11347;52.030;4.690;2023-02-04T04:10:44;7.63;;;2.90;;
22359;SDS011;11347;52.030;4.690;2023-02-04T04:13:10;8.73;;;3.00;;
22359;SDS011;11347;52.030;4.690;2023-02-04T04:15:35;9.70;;;3.07;;
22359;SDS011;11347;52.030;4.690;2023-02-04T04:18:01;7.70;;;2.80;;
22359;SDS011;11347;52.030;4.690;2023-02-04T04:20:28;9.50;;;2.97;;
22359;SDS011;11347;52.030;4.690;2023-02-04T04:22:54;8.73;;;2.93;;
22359;SDS011;11347;52.030;4.690;2023-02-04T04:25:19;10.13;;;3.10;;
22359;SDS011;11347;52.030;4.690;2023-02-04T04:27:45;6.80;;;2.87;;
22359;SDS011;11347;52.030;4.690;2023-02-04T04:30:11;10.47;;;3.00;;
22359;SDS011;11347;52.030;4.690;2023-02-04T04:32:36;12.37;;;3.00;;
22359;SDS011;11347;52.030;4.690;2023-02-04T04:35:02;9.70;;;2.63;;
22359;SDS011;11347;52.030;4.690;2023-02-04T04:37:28;8.57;;;2.77;;
22359;SDS011;11347;52.030;4.690;2023-02-04T04:39:53;6.83;;;2.83;;
22359;SDS011;11347;52.030;4.690;2023-02-04T04:42:19;12.37;;;2.87;;
22359;SDS011;11347;52.030;4.690;2023-02-04T04:44:45;10.63;;;2.80;;
22359;SDS011;11347;52.030;4.690;2023-02-04T04:47:10;8.10;;;2.87;;
22359;SDS011;11347;52.030;4.690;2023-02-04T04:49:36;9.23;;;2.53;;
22359;SDS011;11347;52.030;4.690;2023-02-04T04:52:01;10.97;;;2.57;;
22359;SDS011;11347;52.030;4.690;2023-02-04T04:54:27;9.90;;;3.03;;
22359;SDS011;11347;52.030;4.690;2023-02-04T04:56:53;7.07;;;2.30;;
22359;SDS011;11347;52.030;4.690;2023-02-04T04:59:18;9.13;;;2.53;;
22359;SDS011;11347;52.030;4.690;2023-02-04T05:01:44;9.30;;;2.83;;
22359;SDS011;11347;52.030;4.690;2023-02-04T05:04:09;11.00;;;2.87;;
22359;SDS011;11347;52.030;4.690;2023-02-04T05:06:35;9.27;;;2.70;;
22359;SDS011;11347;52.030;4.690;2023-02-04T05:09:00;12.47;;;2.80;;
22359;SDS011;11347;52.030;4.690;2023-02-04T05:11:26;7.83;;;2.57;;
22359;SDS011;11347;52.030;4.690;2023-02-04T05:13:52;8.70;;;2.53;;
22359;SDS011;11347;52.030;4.690;2023-02-04T05:16:17;11.43;;;3.00;;
22359;SDS011;11347;52.030;4.690;2023-02-04T05:18:43;10.33;;;2.60;;
22359;SDS011;11347;52.030;4.690;2023-02-04T05:21:08;8.47;;;2.40;;
22359;SDS011;11347;52.030;4.690;2023-02-04T05:23:34;8.13;;;2.50;;
22359;SDS011;11347;52.030;4.690;2023-02-04T05:25:59;9.93;;;2.60;;
22359;SDS011;11347;52.030;4.690;2023-02-04T05:28:25;7.50;;;2.37;;
22359;SDS011;11347;52.030;4.690;2023-02-04T05:30:51;13.50;;;2.80;;
22359;SDS011;11347;52.030;4.690;2023-02-04T05:33:17;11.27;;;2.90;;
22359;SDS011;11347;52.030;4.690;2023-02-04T05:35:42;8.20;;;2.17;;
22359;SDS011;11347;52.030;4.690;2023-02-04T05:38:08;7.53;;;2.30;;
22359;SDS011;11347;52.030;4.690;2023-02-04T05:40:33;8.47;;;2.50;;
22359;SDS011;11347;52.030;4.690;2023-02-04T05:42:59;9.23;;;2.40;;
22359;SDS011;11347;52.030;4.690;2023-02-04T05:45:25;9.10;;;2.80;;
22359;SDS011;11347;52.030;4.690;2023-02-04T05:47:51;10.00;;;2.57;;
22359;SDS011;11347;52.030;4.690;2023-02-04T05:50:17;7.07;;;2.20;;
22359;SDS011;11347;52.030;4.690;2023-02-04T05:52:42;7.63;;;2.50;;
22359;SDS011;11347;52.030;4.690;2023-02-04T05:55:09;9.87;;;2.20;;
22359;SDS011;11347;52.030;4.690;2023-02-04T05:57:36;9.17;;;2.67;;
22359;SDS011;11347;52.030;4.690;2023-02-04T06:00:02;7.50;;;2.10;;
22359;SDS011;11347;52.030;4.690;2023-02-04T06:02:28;7.03;;;2.00;;
22359;SDS011;11347;52.030;4.690;2023-02-04T06:04:53;7.00;;;2.37;;
22359;SDS011;11347;52.030;4.690;2023-02-04T06:07:19;10.23;;;2.47;;
22359;SDS011;11347;52.030;4.690;2023-02-04T06:09:44;7.57;;;2.07;;
22359;SDS011;11347;52.030;4.690;2023-02-04T06:12:10;8.00;;;2.00;;
22359;SDS011;11347;52.030;4.690;2023-02-04T06:14:36;6.80;;;2.33;;
22359;SDS011;11347;52.030;4.690;2023-02-04T06:17:01;7.47;;;2.37;;
22359;SDS011;11347;52.030;4.690;2023-02-04T06:19:27;11.17;;;2.70;;
22359;SDS011;11347;52.030;4.690;2023-02-04T06:21:52;7.97;;;2.27;;
22359;SDS011;11347;52.030;4.690;2023-02-04T06:24:18;12.13;;;2.40;;
22359;SDS011;11347;52.030;4.690;2023-02-04T06:26:43;8.23;;;2.30;;
22359;SDS011;11347;52.030;4.690;2023-02-04T06:29:09;10.60;;;2.70;;
22359;SDS011;11347;52.030;4.690;2023-02-04T06:31:34;9.37;;;2.57;;
22359;SDS011;11347;52.030;4.690;2023-02-04T06:34:02;8.30;;;2.07;;
22359;SDS011;11347;52.030;4.690;2023-02-04T06:36:27;7.67;;;2.07;;
22359;SDS011;11347;52.030;4.690;2023-02-04T06:38:53;10.97;;;2.47;;
22359;SDS011;11347;52.030;4.690;2023-02-04T06:41:19;8.60;;;2.50;;
22359;SDS011;11347;52.030;4.690;2023-02-04T06:43:44;7.93;;;2.23;;
22359;SDS011;11347;52.030;4.690;2023-02-04T06:46:10;7.27;;;2.13;;
22359;SDS011;11347;52.030;4.690;2023-02-04T06:48:35;8.60;;;2.20;;
22359;SDS011;11347;52.030;4.690;2023-02-04T06:51:01;8.10;;;2.33;;
22359;SDS011;11347;52.030;4.690;2023-02-04T06:53:26;9.30;;;2.17;;
22359;SDS011;11347;52.030;4.690;2023-02-04T06:55:52;7.70;;;2.10;;
22359;SDS011;11347;52.030;4.690;2023-02-04T06:58:17;8.43;;;1.93;;
22359;SDS011;11347;52.030;4.690;2023-02-04T07:00:43;6.87;;;2.00;;
22359;SDS011;11347;52.030;4.690;2023-02-04T07:03:08;7.20;;;2.20;;
22359;SDS011;11347;52.030;4.690;2023-02-04T07:05:34;7.33;;;2.00;;
22359;SDS011;11347;52.030;4.690;2023-02-04T07:08:00;7.60;;;2.30;;
22359;SDS011;11347;52.030;4.690;2023-02-04T07:10:25;8.80;;;2.10;;
22359;SDS011;11347;52.030;4.690;2023-02-04T07:12:51;9.70;;;2.27;;
22359;SDS011;11347;52.030;4.690;2023-02-04T07:15:17;6.63;;;2.30;;
22359;SDS011;11347;52.030;4.690;2023-02-04T07:17:42;9.00;;;2.40;;
22359;SDS011;11347;52.030;4.690;2023-02-04T07:20:08;11.07;;;2.20;;
22359;SDS011;11347;52.030;4.690;2023-02-04T07:22:35;7.70;;;2.20;;
22359;SDS011;11347;52.030;4.690;2023-02-04T07:25:00;9.13;;;1.90;;
22359;SDS011;11347;52.030;4.690;2023-02-04T07:27:26;8.37;;;1.93;;
22359;SDS011;11347;52.030;4.690;2023-02-04T07:29:51;5.50;;;1.67;;
22359;SDS011;11347;52.030;4.690;2023-02-04T07:32:17;6.87;;;2.00;;
22359;SDS011;11347;52.030;4.690;2023-02-04T07:34:42;7.87;;;2.10;;
22359;SDS011;11347;52.030;4.690;2023-02-04T07:37:08;8.03;;;2.30;;
22359;SDS011;11347;52.030;4.690;2023-02-04T07:39:33;6.33;;;2.20;;
22359;SDS011;11347;52.030;4.690;2023-02-04T07:41:59;9.13;;;2.40;;
22359;SDS011;11347;52.030;4.690;2023-02-04T07:44:24;14.27;;;2.30;;
22359;SDS011;11347;52.030;4.690;2023-02-04T07:46:50;9.70;;;2.27;;
22359;SDS011;11347;52.030;4.690;2023-02-04T07:49:16;9.23;;;2.07;;
22359;SDS011;11347;52.030;4.690;2023-02-04T07:51:41;10.10;;;2.30;;
22359;SDS011;11347;52.030;4.690;2023-02-04T07:54:07;7.50;;;1.93;;
22359;SDS011;11347;52.030;4.690;2023-02-04T07:56:33;9.43;;;1.87;;
22359;SDS011;11347;52.030;4.690;2023-02-04T07:58:58;9.37;;;2.00;;
22359;SDS011;11347;52.030;4.690;2023-02-04T08:01:24;9.17;;;2.33;;
22359;SDS011;11347;52.030;4.690;2023-02-04T08:03:49;9.33;;;2.60;;
22359;SDS011;11347;52.030;4.690;2023-02-04T08:06:15;8.20;;;2.23;;
22359;SDS011;11347;52.030;4.690;2023-02-04T08:08:40;8.23;;;2.10;;
22359;SDS011;11347;52.030;4.690;2023-02-04T08:11:06;11.93;;;2.47;;
22359;SDS011;11347;52.030;4.690;2023-02-04T08:13:32;8.87;;;2.37;;
22359;SDS011;11347;52.030;4.690;2023-02-04T08:15:57;6.43;;;1.80;;
22359;SDS011;11347;52.030;4.690;2023-02-04T08:18:23;9.43;;;2.30;;
22359;SDS011;11347;52.030;4.690;2023-02-04T08:20:51;12.23;;;2.20;;
22359;SDS011;11347;52.030;4.690;2023-02-04T08:23:17;9.37;;;2.10;;
22359;SDS011;11347;52.030;4.690;2023-02-04T08:25:42;11.13;;;2.17;;
22359;SDS011;11347;52.030;4.690;2023-02-04T08:28:09;8.37;;;2.00;;
22359;SDS011;11347;52.030;4.690;2023-02-04T08:30:35;18.80;;;2.70;;
22359;SDS011;11347;52.030;4.690;2023-02-04T08:33:01;14.70;;;2.23;;
22359;SDS011;11347;52.030;4.690;2023-02-04T08:35:26;12.13;;;2.03;;
22359;SDS011;11347;52.030;4.690;2023-02-04T08:37:52;11.40;;;1.97;;
22359;SDS011;11347;52.030;4.690;2023-02-04T08:40:18;12.63;;;2.43;;
22359;SDS011;11347;52.030;4.690;2023-02-04T08:42:43;8.10;;;2.37;;
22359;SDS011;11347;52.030;4.690;2023-02-04T08:45:09;13.23;;;2.00;;
22359;SDS011;11347;52.030;4.690;2023-02-04T08:47:35;9.00;;;2.10;;
22359;SDS011;11347;52.030;4.690;2023-02-04T08:50:00;9.17;;;2.20;;
22359;SDS011;11347;52.030;4.690;2023-02-04T08:52:26;7.73;;;2.07;;
22359;SDS011;11347;52.030;4.690;2023-02-04T08:54:51;7.40;;;2.10;;
22359;SDS011;11347;52.030;4.690;2023-02-04T08:57:17;8.47;;;2.00;;
22359;SDS011;11347;52.030;4.690;2023-02-04T08:59:42;9.13;;;2.00;;
22359;SDS011;11347;52.030;4.690;2023-02-04T09:02:09;9.27;;;2.10;;
22359;SDS011;11347;52.030;4.690;2023-02-04T09:04:35;7.57;;;1.80;;
22359;SDS011;11347;52.030;4.690;2023-02-04T09:07:00;9.00;;;2.10;;
22359;SDS011;11347;52.030;4.690;2023-02-04T09:09:26;7.47;;;2.30;;
22359;SDS011;11347;52.030;4.690;2023-02-04T09:11:53;8.70;;;1.80;;
22359;SDS011;11347;52.030;4.690;2023-02-04T09:14:18;8.83;;;2.23;;
22359;SDS011;11347;52.030;4.690;2023-02-04T09:16:44;11.30;;;2.00;;
22359;SDS011;11347;52.030;4.690;2023-02-04T09:19:09;11.40;;;2.40;;
22359;SDS011;11347;52.030;4.690;2023-02-04T09:21:36;9.53;;;2.10;;
22359;SDS011;11347;52.030;4.690;2023-02-04T09:24:02;8.47;;;2.03;;
22359;SDS011;11347;52.030;4.690;2023-02-04T09:26:28;8.43;;;2.13;;
22359;SDS011;11347;52.030;4.690;2023-02-04T09:28:53;7.20;;;2.00;;
22359;SDS011;11347;52.030;4.690;2023-02-04T09:31:19;9.50;;;2.07;;
22359;SDS011;11347;52.030;4.690;2023-02-04T09:33:45;8.23;;;1.80;;
22359;SDS011;11347;52.030;4.690;2023-02-04T09:36:10;7.47;;;1.80;;
22359;SDS011;11347;52.030;4.690;2023-02-04T09:38:36;8.03;;;2.00;;
22359;SDS011;11347;52.030;4.690;2023-02-04T09:41:03;7.53;;;2.00;;
22359;SDS011;11347;52.030;4.690;2023-02-04T09:43:35;9.13;;;2.07;;
22359;SDS011;11347;52.030;4.690;2023-02-04T09:46:04;7.93;;;2.07;;
22359;SDS011;11347;52.030;4.690;2023-02-04T09:48:32;9.43;;;2.10;;
22359;SDS011;11347;52.030;4.690;2023-02-04T09:51:04;8.33;;;1.87;;
22359;SDS011;11347;52.030;4.690;2023-02-04T09:53:31;6.20;;;1.90;;
22359;SDS011;11347;52.030;4.690;2023-02-04T09:55:56;10.47;;;2.10;;
22359;SDS011;11347;52.030;4.690;2023-02-04T09:58:22;7.30;;;2.03;;
22359;SDS011;11347;52.030;4.690;2023-02-04T10:03:38;9.37;;;2.13;;
22359;SDS011;11347;52.030;4.690;2023-02-04T10:06:10;9.30;;;2.07;;
22359;SDS011;11347;52.030;4.690;2023-02-04T10:08:40;9.37;;;2.30;;
22359;SDS011;11347;52.030;4.690;2023-02-04T10:11:07;7.07;;;1.80;;
22359;SDS011;11347;52.030;4.690;2023-02-04T10:13:34;8.33;;;2.13;;
22359;SDS011;11347;52.030;4.690;2023-02-04T10:16:03;7.83;;;1.70;;
22359;SDS011;11347;52.030;4.690;2023-02-04T10:18:37;7.93;;;1.90;;
22359;SDS011;11347;52.030;4.690;2023-02-04T10:21:14;7.77;;;2.00;;
22359;SDS011;11347;52.030;4.690;2023-02-04T10:23:42;7.97;;;2.07;;
22359;SDS011;11347;52.030;4.690;2023-02-04T10:26:11;10.73;;;2.20;;
22359;SDS011;11347;52.030;4.690;2023-02-04T10:28:37;8.80;;;2.00;;
22359;SDS011;11347;52.030;4.690;2023-02-04T10:31:25;8.60;;;2.10;;
22359;SDS011;11347;52.030;4.690;2023-02-04T10:34:04;7.37;;;1.87;;
22359;SDS011;11347;52.030;4.690;2023-02-04T10:36:39;8.57;;;2.17;;
22359;SDS011;11347;52.030;4.690;2023-02-04T10:39:14;8.17;;;2.00;;
22359;SDS011;11347;52.030;4.690;2023-02-04T10:42:05;7.70;;;1.67;;
22359;SDS011;11347;52.030;4.690;2023-02-04T10:44:31;8.40;;;2.00;;
22359;SDS011;11347;52.030;4.690;2023-02-04T10:47:14;6.80;;;1.77;;
22359;SDS011;11347;52.030;4.690;2023-02-04T10:52:43;7.63;;;1.77;;
22359;SDS011;11347;52.030;4.690;2023-02-04T10:55:19;8.87;;;2.20;;
22359;SDS011;11347;52.030;4.690;2023-02-04T10:57:47;10.93;;;2.37;;
22359;SDS011;11347;52.030;4.690;2023-02-04T11:05:31;7.77;;;1.97;;
22359;SDS011;11347;52.030;4.690;2023-02-04T11:07:58;9.33;;;2.00;;
22359;SDS011;11347;52.030;4.690;2023-02-04T11:10:31;8.17;;;1.80;;
22359;SDS011;11347;52.030;4.690;2023-02-04T11:12:59;7.13;;;1.83;;
22359;SDS011;11347;52.030;4.690;2023-02-04T11:15:43;10.87;;;2.27;;
22359;SDS011;11347;52.030;4.690;2023-02-04T11:20:46;10.03;;;1.93;;
22359;SDS011;11347;52.030;4.690;2023-02-04T11:31:24;7.67;;;2.03;;
22359;SDS011;11347;52.030;4.690;2023-02-04T11:34:01;9.60;;;2.03;;
22359;SDS011;11347;52.030;4.690;2023-02-04T11:36:47;9.90;;;2.10;;
22359;SDS011;11347;52.030;4.690;2023-02-04T11:39:31;8.80;;;1.90;;
22359;SDS011;11347;52.030;4.690;2023-02-04T11:42:01;8.10;;;1.97;;
22359;SDS011;11347;52.030;4.690;2023-02-04T11:44:28;7.60;;;1.63;;
22359;SDS011;11347;52.030;4.690;2023-02-04T11:46:54;5.93;;;1.53;;
22359;SDS011;11347;52.030;4.690;2023-02-04T11:49:21;5.73;;;1.80;;
22359;SDS011;11347;52.030;4.690;2023-02-04T11:51:48;9.87;;;2.03;;
22359;SDS011;11347;52.030;4.690;2023-02-04T11:54:15;6.90;;;1.70;;
22359;SDS011;11347;52.030;4.690;2023-02-04T11:56:43;7.47;;;1.80;;
22359;SDS011;11347;52.030;4.690;2023-02-04T11:59:11;5.97;;;1.90;;
22359;SDS011;11347;52.030;4.690;2023-02-04T12:01:38;9.53;;;1.77;;
22359;SDS011;11347;52.030;4.690;2023-02-04T12:04:05;7.70;;;2.17;;
22359;SDS011;11347;52.030;4.690;2023-02-04T12:06:33;7.20;;;1.93;;
22359;SDS011;11347;52.030;4.690;2023-02-04T12:09:13;7.03;;;1.60;;
22359;SDS011;11347;52.030;4.690;2023-02-04T12:12:06;7.67;;;1.93;;
22359;SDS011;11347;52.030;4.690;2023-02-04T12:14:32;5.83;;;1.80;;
22359;SDS011;11347;52.030;4.690;2023-02-04T12:16:59;10.13;;;2.30;;
22359;SDS011;11347;52.030;4.690;2023-02-04T12:19:25;8.70;;;1.70;;
22359;SDS011;11347;52.030;4.690;2023-02-04T12:21:51;7.10;;;1.63;;
22359;SDS011;11347;52.030;4.690;2023-02-04T12:24:17;4.97;;;1.60;;
22359;SDS011;11347;52.030;4.690;2023-02-04T12:26:42;7.07;;;1.73;;
22359;SDS011;11347;52.030;4.690;2023-02-04T12:29:08;6.07;;;1.80;;
22359;SDS011;11347;52.030;4.690;2023-02-04T12:31:34;7.47;;;1.50;;
22359;SDS011;11347;52.030;4.690;2023-02-04T12:33:59;4.70;;;1.67;;
22359;SDS011;11347;52.030;4.690;2023-02-04T12:36:26;9.20;;;1.93;;
22359;SDS011;11347;52.030;4.690;2023-02-04T12:38:53;5.63;;;1.47;;
22359;SDS011;11347;52.030;4.690;2023-02-04T12:41:19;6.13;;;1.70;;
22359;SDS011;11347;52.030;4.690;2023-02-04T12:43:45;6.33;;;1.87;;
22359;SDS011;11347;52.030;4.690;2023-02-04T12:46:14;6.90;;;1.60;;
22359;SDS011;11347;52.030;4.690;2023-02-04T12:48:40;5.53;;;1.70;;
22359;SDS011;11347;52.030;4.690;2023-02-04T12:51:06;6.37;;;1.93;;
22359;SDS011;11347;52.030;4.690;2023-02-04T12:53:32;7.13;;;1.87;;
22359;SDS011;11347;52.030;4.690;2023-02-04T12:55:57;5.63;;;1.60;;
22359;SDS011;11347;52.030;4.690;2023-02-04T12:58:23;5.13;;;1.67;;
22359;SDS011;11347;52.030;4.690;2023-02-04T13:00:49;5.47;;;1.63;;
22359;SDS011;11347;52.030;4.690;2023-02-04T13:03:14;5.03;;;1.87;;
22359;SDS011;11347;52.030;4.690;2023-02-04T13:05:40;8.23;;;1.90;;
22359;SDS011;11347;52.030;4.690;2023-02-04T13:08:06;4.43;;;1.40;;
22359;SDS011;11347;52.030;4.690;2023-02-04T13:10:32;5.00;;;1.87;;
22359;SDS011;11347;52.030;4.690;2023-02-04T13:12:57;6.23;;;1.90;;
22359;SDS011;11347;52.030;4.690;2023-02-04T13:15:24;4.87;;;1.60;;
22359;SDS011;11347;52.030;4.690;2023-02-04T13:17:50;6.37;;;1.60;;
22359;SDS011;11347;52.030;4.690;2023-02-04T13:20:15;6.90;;;1.80;;
22359;SDS011;11347;52.030;4.690;2023-02-04T13:22:41;6.67;;;1.57;;
22359;SDS011;11347;52.030;4.690;2023-02-04T13:25:07;5.27;;;1.60;;
22359;SDS011;11347;52.030;4.690;2023-02-04T13:27:35;6.13;;;1.80;;
22359;SDS011;11347;52.030;4.690;2023-02-04T13:30:01;5.80;;;1.60;;
22359;SDS011;11347;52.030;4.690;2023-02-04T13:32:28;6.83;;;1.57;;
22359;SDS011;11347;52.030;4.690;2023-02-04T13:34:54;8.27;;;1.90;;
22359;SDS011;11347;52.030;4.690;2023-02-04T13:37:19;5.93;;;1.90;;
22359;SDS011;11347;52.030;4.690;2023-02-04T13:39:45;7.40;;;1.80;;
22359;SDS011;11347;52.030;4.690;2023-02-04T13:42:10;9.30;;;1.97;;
22359;SDS011;11347;52.030;4.690;2023-02-04T13:44:36;6.90;;;1.80;;
22359;SDS011;11347;52.030;4.690;2023-02-04T13:47:01;5.30;;;1.53;;
22359;SDS011;11347;52.030;4.690;2023-02-04T13:49:27;6.03;;;1.60;;
22359;SDS011;11347;52.030;4.690;2023-02-04T13:51:52;7.53;;;1.50;;
22359;SDS011;11347;52.030;4.690;2023-02-04T13:54:18;5.13;;;1.67;;
22359;SDS011;11347;52.030;4.690;2023-02-04T13:56:43;6.60;;;1.70;;
22359;SDS011;11347;52.030;4.690;2023-02-04T13:59:09;8.40;;;1.70;;
22359;SDS011;11347;52.030;4.690;2023-02-04T14:01:35;6.20;;;1.60;;
22359;SDS011;11347;52.030;4.690;2023-02-04T14:04:01;5.27;;;1.53;;
22359;SDS011;11347;52.030;4.690;2023-02-04T14:06:26;6.80;;;1.70;;
22359;SDS011;11347;52.030;4.690;2023-02-04T14:08:57;7.77;;;1.93;;
22359;SDS011;11347;52.030;4.690;2023-02-04T14:11:24;5.87;;;1.73;;
22359;SDS011;11347;52.030;4.690;2023-02-04T14:13:50;8.73;;;1.70;;
22359;SDS011;11347;52.030;4.690;2023-02-04T14:16:15;5.93;;;1.80;;
22359;SDS011;11347;52.030;4.690;2023-02-04T14:18:41;5.33;;;1.63;;
22359;SDS011;11347;52.030;4.690;2023-02-04T14:21:06;6.80;;;1.70;;
22359;SDS011;11347;52.030;4.690;2023-02-04T14:23:32;6.57;;;1.80;;
22359;SDS011;11347;52.030;4.690;2023-02-04T14:25:57;7.23;;;1.90;;
22359;SDS011;11347;52.030;4.690;2023-02-04T14:28:23;6.03;;;1.80;;
22359;SDS011;11347;52.030;4.690;2023-02-04T14:30:48;6.60;;;1.40;;
22359;SDS011;11347;52.030;4.690;2023-02-04T14:33:14;6.83;;;1.70;;
22359;SDS011;11347;52.030;4.690;2023-02-04T14:35:42;6.23;;;1.53;;
22359;SDS011;11347;52.030;4.690;2023-02-04T14:38:07;5.47;;;1.60;;
22359;SDS011;11347;52.030;4.690;2023-02-04T14:40:35;6.80;;;1.80;;
22359;SDS011;11347;52.030;4.690;2023-02-04T14:43:00;5.40;;;1.80;;
22359;SDS011;11347;52.030;4.690;2023-02-04T14:45:26;7.23;;;1.70;;
22359;SDS011;11347;52.030;4.690;2023-02-04T14:47:51;9.13;;;2.07;;
22359;SDS011;11347;52.030;4.690;2023-02-04T14:50:20;7.27;;;2.00;;
22359;SDS011;11347;52.030;4.690;2023-02-04T14:52:51;8.53;;;2.00;;
22359;SDS011;11347;52.030;4.690;2023-02-04T14:55:21;7.03;;;1.83;;
22359;SDS011;11347;52.030;4.690;2023-02-04T14:57:47;5.07;;;1.57;;
22359;SDS011;11347;52.030;4.690;2023-02-04T15:00:12;7.97;;;1.97;;
22359;SDS011;11347;52.030;4.690;2023-02-04T15:02:38;3.90;;;1.60;;
22359;SDS011;11347;52.030;4.690;2023-02-04T15:05:04;6.73;;;1.43;;